Time;durP1;ratioP1;P1;durP2;ratioP2;P2;SDS_P1;SDS_P2;PMS_P1;PMS_P2;Temp;Humidity;BMP_temperature;BMP_pressure;BME280_temperature;BME280_humidity;BME280_pressure;Samples;Min_cycle;Max_cycle;Signal;HPM_P1;HPM_P2
2022/09/04 00:01:36;;;;;;;1.50;1.27;;;16.60;70.40;;;;;;4967009;28;20046;-74
2022/09/04 00:04:29;;;;;;;1.42;1.30;;;16.50;70.50;;;;;;4960094;28;20054;-74
2022/09/04 00:07:09;;;;;;;1.33;1.23;;;16.40;70.60;;;;;;4959371;28;20101;-74
2022/09/04 00:09:48;;;;;;;1.38;1.27;;;16.40;70.70;;;;;;4974971;28;20433;-74
2022/09/04 00:12:22;;;;;;;2.38;1.30;;;16.40;70.80;;;;;;4974947;28;20046;-74
2022/09/04 00:15:06;;;;;;;1.42;1.33;;;16.30;70.90;;;;;;4964762;28;20039;-74
2022/09/04 00:17:45;;;;;;;1.77;1.23;;;16.30;71.00;;;;;;4958873;28;20073;-74
2022/09/04 00:20:55;;;;;;;1.50;1.30;;;16.30;71.10;;;;;;4974865;28;20043;-74
2022/09/04 00:23:33;;;;;;;1.35;1.13;;;16.30;71.10;;;;;;4974873;28;20046;-74
2022/09/04 00:26:21;;;;;;;1.60;1.30;;;16.20;71.00;;;;;;4956810;28;20044;-74
2022/09/04 00:28:50;;;;;;;1.65;1.10;;;16.20;71.20;;;;;;4965053;28;20129;-74
2022/09/04 00:31:25;;;;;;;1.30;1.17;;;16.20;71.30;;;;;;4965247;28;20061;-74
2022/09/04 00:34:30;;;;;;;1.80;1.10;;;16.10;72.20;;;;;;4955804;28;20488;-75
2022/09/04 00:37:03;;;;;;;1.17;1.08;;;16.10;71.30;;;;;;4954087;28;20096;-75
2022/09/04 00:39:49;;;;;;;1.30;1.10;;;16.00;71.40;;;;;;4966896;28;20051;-74
2022/09/04 00:43:05;;;;;;;1.40;1.30;;;16.10;71.50;;;;;;4948347;28;20042;-74
2022/09/04 00:46:19;;;;;;;1.40;1.30;;;16.00;71.70;;;;;;4870023;29;20091;-74
2022/09/04 00:49:10;;;;;;;1.63;1.30;;;16.00;71.50;;;;;;4934515;28;20089;-74
2022/09/04 00:51:59;;;;;;;1.33;1.20;;;15.90;71.70;;;;;;4972366;28;20100;-74
2022/09/04 00:54:43;;;;;;;1.40;1.30;;;15.90;71.90;;;;;;4959305;28;20044;-75
2022/09/04 00:57:41;;;;;;;1.40;1.30;;;15.90;71.90;;;;;;4960428;28;20066;-74
2022/09/04 01:00:29;;;;;;;2.38;1.77;;;15.80;72.20;;;;;;4973153;28;20054;-74
2022/09/04 01:03:06;;;;;;;1.30;1.20;;;15.70;72.20;;;;;;4950461;28;20039;-74
2022/09/04 01:05:51;;;;;;;1.75;1.25;;;15.70;72.80;;;;;;4964448;28;20321;-74
2022/09/04 01:08:45;;;;;;;2.78;1.60;;;15.60;72.90;;;;;;4937813;29;20506;-74
2022/09/04 01:11:15;;;;;;;2.08;1.45;;;15.50;72.90;;;;;;4954266;28;20054;-74
2022/09/04 01:13:50;;;;;;;1.35;1.20;;;15.50;73.80;;;;;;4966617;28;20074;-74
2022/09/04 01:16:33;;;;;;;1.92;1.45;;;15.50;72.80;;;;;;4958761;28;20046;-74
2022/09/04 01:19:09;;;;;;;1.83;1.45;;;15.50;73.00;;;;;;4974404;28;20051;-75
2022/09/04 01:21:54;;;;;;;1.40;1.30;;;15.50;73.20;;;;;;4954196;28;20050;-74
2022/09/04 01:24:41;;;;;;;1.90;1.40;;;15.40;73.80;;;;;;4970881;28;20049;-74
2022/09/04 01:27:27;;;;;;;1.67;1.27;;;15.30;73.60;;;;;;4958530;28;20047;-74
2022/09/04 01:30:13;;;;;;;2.90;1.60;;;15.30;74.50;;;;;;4958281;28;20050;-75
2022/09/04 01:33:16;;;;;;;1.45;1.33;;;15.30;74.40;;;;;;4958437;28;20534;-75
2022/09/04 01:36:12;;;;;;;2.22;1.30;;;15.20;74.40;;;;;;4974131;28;20035;-75
2022/09/04 01:38:53;;;;;;;1.98;1.30;;;15.20;74.40;;;;;;4964909;28;20047;-75
2022/09/04 01:41:26;;;;;;;3.05;1.50;;;15.20;74.40;;;;;;4961480;28;20039;-75
2022/09/04 01:43:52;;;;;;;1.42;1.23;;;15.20;74.80;;;;;;4971863;28;20181;-75
2022/09/04 01:46:37;;;;;;;1.23;1.10;;;15.10;75.40;;;;;;4942654;28;20557;-75
2022/09/04 01:49:23;;;;;;;1.90;1.38;;;15.00;75.70;;;;;;4939269;28;20402;-74
2022/09/04 01:52:20;;;;;;;2.17;1.40;;;14.90;76.00;;;;;;4977208;28;20158;-74
2022/09/04 01:55:07;;;;;;;1.70;1.60;;;14.80;76.50;;;;;;4977189;28;20038;-74
2022/09/04 01:58:03;;;;;;;2.28;1.73;;;14.80;77.30;;;;;;4969561;28;20400;-74
2022/09/04 02:00:37;;;;;;;1.48;1.30;;;14.70;76.70;;;;;;4970363;28;20042;-74
2022/09/04 02:03:21;;;;;;;1.98;1.50;;;14.70;76.70;;;;;;4954496;28;20050;-74
2022/09/04 02:06:03;;;;;;;1.42;1.30;;;14.60;77.30;;;;;;4992838;28;20354;-74
2022/09/04 02:09:09;;;;;;;1.75;1.58;;;14.60;77.50;;;;;;4968359;28;20500;-74
2022/09/04 02:11:36;;;;;;;2.00;1.80;;;14.50;77.90;;;;;;4958732;28;20046;-74
2022/09/04 02:14:31;;;;;;;3.33;2.00;;;14.40;78.40;;;;;;4964354;28;20038;-74
2022/09/04 02:17:17;;;;;;;1.60;1.50;;;14.30;79.30;;;;;;4957819;28;20042;-74
2022/09/04 02:20:03;;;;;;;1.70;1.30;;;14.30;79.10;;;;;;4965363;28;20050;-74
2022/09/04 02:22:47;;;;;;;2.40;1.73;;;14.30;79.10;;;;;;4960942;28;20513;-74
2022/09/04 02:25:37;;;;;;;1.70;1.50;;;14.30;79.20;;;;;;4963059;28;20038;-75
2022/09/04 02:28:05;;;;;;;2.40;1.52;;;14.30;79.10;;;;;;4967455;28;20049;-75
2022/09/04 02:30:53;;;;;;;2.55;1.60;;;14.30;78.80;;;;;;4965504;28;20049;-75
2022/09/04 02:33:31;;;;;;;2.08;1.73;;;14.30;79.10;;;;;;4976889;28;20050;-75
2022/09/04 02:36:07;;;;;;;2.13;1.83;;;14.30;79.40;;;;;;4963487;28;20179;-75
2022/09/04 02:39:03;;;;;;;1.63;1.50;;;14.30;79.70;;;;;;4946434;28;20318;-75
2022/09/04 02:41:32;;;;;;;1.70;1.60;;;14.20;80.10;;;;;;4947695;28;20065;-75
2022/09/04 02:44:19;;;;;;;2.67;1.65;;;14.20;80.30;;;;;;4961869;28;20042;-75
2022/09/04 02:46:55;;;;;;;1.83;1.73;;;14.10;80.90;;;;;;4942335;28;20097;-75
2022/09/04 02:49:42;;;;;;;2.13;1.85;;;14.00;81.10;;;;;;4953973;28;20054;-75
2022/09/04 02:52:22;;;;;;;2.17;1.98;;;13.90;81.50;;;;;;4960904;28;20041;-75
2022/09/04 02:55:09;;;;;;;1.88;1.73;;;13.90;81.90;;;;;;4950546;28;20046;-75
2022/09/04 02:57:54;;;;;;;2.30;2.00;;;13.80;82.90;;;;;;4970143;28;20498;-74
2022/09/04 03:00:22;;;;;;;2.83;1.73;;;13.70;83.30;;;;;;4959724;28;20034;-74
2022/09/04 03:03:08;;;;;;;2.00;1.80;;;13.70;83.70;;;;;;4972706;28;20039;-74
2022/09/04 03:05:41;;;;;;;2.25;1.90;;;13.60;83.80;;;;;;4963374;28;20042;-74
2022/09/04 03:08:19;;;;;;;;;;;13.60;83.50;;;;;;4976116;28;20420;-74
2022/09/04 03:10:55;;;;;;;2.67;1.70;;;13.60;83.30;;;;;;4968488;28;20308;-74
2022/09/04 03:13:39;;;;;;;3.20;2.00;;;13.70;82.90;;;;;;4946437;28;20046;-74
2022/09/04 03:16:22;;;;;;;1.95;1.75;;;13.80;83.00;;;;;;4964362;28;20145;-74
2022/09/04 03:19:00;;;;;;;2.17;1.98;;;13.80;82.50;;;;;;4956200;28;20088;-74
2022/09/04 03:21:38;;;;;;;2.00;1.80;;;13.80;83.20;;;;;;4956676;28;20466;-74
2022/09/04 03:24:19;;;;;;;2.40;1.98;;;13.80;83.40;;;;;;4940802;28;20516;-75
2022/09/04 03:26:54;;;;;;;2.80;1.77;;;13.70;83.40;;;;;;4967486;28;20081;-75
2022/09/04 03:29:36;;;;;;;1.90;1.77;;;13.70;83.50;;;;;;4975347;28;20146;-75
2022/09/04 03:32:14;;;;;;;3.38;2.10;;;13.70;83.60;;;;;;4959427;28;20048;-74
2022/09/04 03:34:47;;;;;;;2.28;1.98;;;13.70;83.90;;;;;;4971001;28;20485;-74
2022/09/04 03:37:38;;;;;;;2.75;2.08;;;13.70;84.30;;;;;;4946408;28;20035;-74
2022/09/04 03:40:34;;;;;;;3.08;2.03;;;13.70;84.00;;;;;;4945299;28;20046;-74
2022/09/04 03:43:13;;;;;;;2.05;1.85;;;13.70;84.10;;;;;;4936419;29;20123;-74
2022/09/04 03:46:17;;;;;;;2.00;1.90;;;13.70;84.10;;;;;;4954255;28;20050;-74
2022/09/04 03:48:45;;;;;;;2.72;1.98;;;13.60;84.90;;;;;;4973500;28;20069;-74
2022/09/04 03:51:23;;;;;;;2.50;2.10;;;13.60;85.70;;;;;;4969597;28;20086;-75
2022/09/04 03:54:06;;;;;;;2.50;2.15;;;13.50;85.30;;;;;;4960219;28;20043;-75
2022/09/04 03:56:45;;;;;;;2.30;2.10;;;13.50;85.90;;;;;;4968703;28;20042;-75
2022/09/04 03:59:45;;;;;;;2.53;1.88;;;13.50;85.80;;;;;;4939768;28;20043;-75
2022/09/04 04:02:46;;;;;;;2.08;1.90;;;13.40;86.30;;;;;;4955919;28;20069;-74
2022/09/04 04:05:37;;;;;;;2.03;1.83;;;13.40;87.30;;;;;;4951825;28;20094;-74
2022/09/04 04:08:26;;;;;;;2.10;1.90;;;13.40;87.00;;;;;;4940910;28;20056;-75
2022/09/04 04:11:29;;;;;;;2.83;2.00;;;13.30;87.60;;;;;;4955653;28;20053;-75
2022/09/04 04:14:04;;;;;;;2.90;2.60;;;13.30;87.50;;;;;;4955893;28;20034;-75
2022/09/04 04:17:11;;;;;;;2.53;2.00;;;13.20;87.70;;;;;;4941373;28;20065;-75
2022/09/04 04:19:43;;;;;;;2.42;2.00;;;13.20;88.60;;;;;;4935557;28;20505;-75
2022/09/04 04:22:30;;;;;;;2.75;2.55;;;13.20;88.50;;;;;;4974915;28;20125;-75
2022/09/04 04:25:15;;;;;;;3.15;2.40;;;13.00;88.80;;;;;;4974900;28;20337;-75
2022/09/04 04:28:22;;;;;;;2.40;2.20;;;13.00;89.00;;;;;;4963538;28;20512;-75
2022/09/04 04:30:57;;;;;;;3.35;2.65;;;13.00;89.20;;;;;;4947924;28;20468;-74
2022/09/04 04:33:52;;;;;;;3.78;2.80;;;13.00;88.80;;;;;;4942763;28;20137;-74
2022/09/04 04:36:41;;;;;;;2.60;2.40;;;13.10;89.00;;;;;;4957501;28;20043;-74
2022/09/04 04:39:44;;;;;;;2.67;2.47;;;13.10;88.90;;;;;;4952378;28;20057;-74
2022/09/04 04:42:40;;;;;;;3.00;2.70;;;13.20;88.80;;;;;;4958903;28;20057;-74
2022/09/04 04:48:40;;;;;;;2.90;2.50;;;13.30;88.70;;;;;;4963532;28;20057;-74
2022/09/04 04:51:15;;;;;;;2.95;2.42;;;13.30;88.60;;;;;;4920349;29;20083;-74
2022/09/04 04:54:05;;;;;;;3.17;2.60;;;13.30;88.50;;;;;;4920297;29;20035;-74
2022/09/04 04:56:45;;;;;;;2.83;2.58;;;13.30;88.50;;;;;;4939210;28;20043;-74
2022/09/04 04:59:26;;;;;;;4.40;2.30;;;13.30;88.30;;;;;;4951840;28;20034;-75
2022/09/04 05:02:17;;;;;;;2.75;2.47;;;13.40;88.40;;;;;;4967974;28;20428;-74
2022/09/04 05:05:36;;;;;;;3.25;2.67;;;13.40;88.60;;;;;;4958881;28;20042;-74
2022/09/04 05:08:30;;;;;;;3.67;2.60;;;13.40;88.50;;;;;;4948191;28;20117;-74
2022/09/04 05:10:58;;;;;;;;;;;13.50;88.30;;;;;;4963024;28;20042;-74
2022/09/04 05:13:43;;;;;;;2.92;2.40;;;13.50;88.40;;;;;;4962504;28;19922;-74
2022/09/04 05:16:33;;;;;;;2.40;2.17;;;13.50;88.10;;;;;;4966232;28;20061;-74
2022/09/04 05:19:14;;;;;;;3.08;2.40;;;13.50;88.40;;;;;;4966118;28;20526;-74
2022/09/04 05:21:45;;;;;;;3.00;2.67;;;13.60;88.40;;;;;;4974440;28;20034;-74
2022/09/04 05:24:33;;;;;;;3.00;2.70;;;13.60;88.50;;;;;;4988561;28;20081;-74
2022/09/04 05:27:32;;;;;;;2.67;2.25;;;13.60;88.20;;;;;;4939195;29;20047;-74
2022/09/04 05:30:24;;;;;;;2.45;2.25;;;13.70;88.40;;;;;;4964869;28;20042;-74
2022/09/04 05:33:05;;;;;;;3.20;2.90;;;13.80;88.20;;;;;;4944792;28;20058;-74
2022/09/04 05:35:52;;;;;;;2.80;2.40;;;13.70;88.10;;;;;;4958556;28;20073;-74
2022/09/04 05:38:41;;;;;;;2.65;2.30;;;13.70;88.30;;;;;;4958530;28;20047;-75
2022/09/04 05:41:45;;;;;;;2.83;2.45;;;13.80;88.40;;;;;;4964871;28;20099;-74
2022/09/04 05:44:16;;;;;;;3.42;2.63;;;13.90;88.50;;;;;;4952393;28;20058;-74
2022/09/04 05:47:19;;;;;;;2.72;2.50;;;13.90;89.20;;;;;;4977491;28;20075;-74
2022/09/04 05:50:11;;;;;;;2.92;2.63;;;14.00;89.10;;;;;;4968418;28;20074;-74
2022/09/04 05:53:09;;;;;;;3.35;2.50;;;14.00;88.80;;;;;;4963089;28;20047;-74
2022/09/04 05:55:59;;;;;;;3.08;2.67;;;14.10;89.10;;;;;;4968193;28;20491;-74
2022/09/04 05:59:00;;;;;;;3.17;2.80;;;14.10;89.20;;;;;;4952790;28;20034;-74
2022/09/04 06:01:45;;;;;;;2.95;2.70;;;14.10;89.10;;;;;;4912681;28;20058;-74
2022/09/04 06:04:39;;;;;;;3.75;2.72;;;14.10;88.90;;;;;;4950168;28;20046;-74
2022/09/04 06:07:41;;;;;;;3.63;2.70;;;14.20;89.00;;;;;;4936360;28;20089;-74
2022/09/04 06:10:18;;;;;;;3.00;2.60;;;14.20;89.00;;;;;;4952199;28;20238;-74
2022/09/04 06:12:44;;;;;;;3.60;2.60;;;14.30;88.90;;;;;;4952779;28;20043;-74
2022/09/04 06:15:32;;;;;;;3.05;2.78;;;14.30;88.90;;;;;;4958259;28;20069;-74
2022/09/04 06:18:29;;;;;;;3.13;2.83;;;14.40;88.80;;;;;;4976628;28;20039;-74
2022/09/04 06:21:25;;;;;;;2.90;2.60;;;14.40;88.90;;;;;;4964802;28;20398;-72
2022/09/04 06:24:03;;;;;;;2.88;2.53;;;14.40;88.90;;;;;;4953258;28;20034;-74
2022/09/04 06:26:37;;;;;;;3.92;2.85;;;14.50;89.00;;;;;;4964327;28;20038;-74
2022/09/04 06:29:26;;;;;;;2.80;2.60;;;14.50;88.90;;;;;;4937061;28;20420;-74
2022/09/04 06:32:19;;;;;;;3.08;2.78;;;14.60;88.90;;;;;;4972100;28;20093;-74
2022/09/04 06:34:59;;;;;;;3.50;2.60;;;14.60;89.00;;;;;;4957346;28;20043;-74
2022/09/04 06:38:11;;;;;;;2.80;2.42;;;14.70;89.00;;;;;;4952537;28;20040;-72
2022/09/04 06:41:07;;;;;;;2.72;2.53;;;14.70;89.20;;;;;;4937869;28;20050;-73
2022/09/04 06:43:54;;;;;;;3.60;2.88;;;14.80;89.00;;;;;;4954011;28;20050;-74
2022/09/04 06:46:26;;;;;;;2.75;2.55;;;14.90;89.10;;;;;;4929400;28;20050;-75
2022/09/04 06:49:09;;;;;;;4.30;3.33;;;15.00;89.40;;;;;;4985903;28;20041;-75
2022/09/04 06:51:41;;;;;;;;;;;15.10;89.80;;;;;;4968403;28;20053;-75
2022/09/04 06:54:43;;;;;;;3.50;2.83;;;15.20;90.30;;;;;;4975059;28;19929;-75
2022/09/04 06:57:16;;;;;;;3.90;2.67;;;15.30;89.70;;;;;;4960227;28;20046;-75
2022/09/04 07:00:03;;;;;;;3.28;2.95;;;15.40;89.20;;;;;;4947886;28;20042;-75
2022/09/04 07:02:37;;;;;;;2.63;2.42;;;15.60;89.00;;;;;;4976109;28;20050;-75
2022/09/04 07:05:10;;;;;;;3.13;2.63;;;15.70;88.80;;;;;;4955908;28;20195;-75
2022/09/04 07:07:53;;;;;;;2.90;2.55;;;15.90;88.70;;;;;;4955734;28;20052;-75
2022/09/04 07:10:31;;;;;;;2.65;2.42;;;15.90;88.30;;;;;;4976136;28;20401;-75
2022/09/04 07:13:22;;;;;;;3.22;2.67;;;16.10;89.00;;;;;;4976086;28;20245;-75
2022/09/04 07:15:55;;;;;;;2.60;2.40;;;16.20;87.80;;;;;;4974275;28;20092;-75
2022/09/04 07:18:36;;;;;;;3.17;2.50;;;16.30;87.90;;;;;;4974687;28;20046;-75
2022/09/04 07:21:31;;;;;;;2.85;2.60;;;16.40;88.10;;;;;;4975843;28;20038;-75
2022/09/04 07:24:07;;;;;;;3.00;2.70;;;16.50;87.90;;;;;;4950148;28;20078;-76
2022/09/04 07:26:38;;;;;;;2.90;2.65;;;16.60;87.60;;;;;;4954039;28;20123;-75
2022/09/04 07:29:23;;;;;;;2.50;2.30;;;16.70;87.40;;;;;;4975311;28;20038;-75
2022/09/04 07:32:08;;;;;;;3.03;2.70;;;16.80;87.00;;;;;;4975747;28;20065;-75
2022/09/04 07:35:06;;;;;;;3.00;2.70;;;17.00;86.80;;;;;;4959670;28;20456;-75
2022/09/04 07:37:56;;;;;;;3.22;2.83;;;17.20;86.70;;;;;;4969077;28;20045;-75
2022/09/04 07:40:28;;;;;;;3.72;2.72;;;17.30;86.70;;;;;;4975381;28;20039;-75
2022/09/04 07:43:06;;;;;;;3.33;2.63;;;17.40;86.40;;;;;;4959465;28;20042;-75
2022/09/04 07:45:47;;;;;;;2.60;2.40;;;17.60;86.20;;;;;;4964539;28;20050;-76
2022/09/04 07:48:29;;;;;;;3.10;2.80;;;17.70;86.30;;;;;;4975331;28;20046;-76
2022/09/04 07:51:08;;;;;;;3.63;2.90;;;17.80;86.20;;;;;;4955512;28;20043;-76
2022/09/04 07:54:10;;;;;;;3.33;2.92;;;17.90;85.70;;;;;;4972966;28;20476;-76
2022/09/04 07:57:00;;;;;;;3.33;2.60;;;18.00;85.70;;;;;;4975330;28;20042;-76
2022/09/04 07:59:36;;;;;;;3.00;2.70;;;18.10;85.70;;;;;;4956553;28;20035;-76
2022/09/04 08:02:26;;;;;;;3.38;3.08;;;18.10;85.50;;;;;;4961739;28;20378;-75
2022/09/04 08:05:10;;;;;;;3.88;3.08;;;18.30;85.90;;;;;;4959509;28;20074;-75
2022/09/04 08:07:39;;;;;;;3.30;3.00;;;18.40;84.70;;;;;;4974916;28;20046;-76
2022/09/04 08:10:34;;;;;;;2.90;2.70;;;18.60;84.60;;;;;;4958960;28;20042;-76
2022/09/04 08:13:32;;;;;;;3.42;3.03;;;18.70;84.20;;;;;;4966248;28;20043;-76
2022/09/04 08:16:21;;;;;;;5.43;3.50;;;18.90;83.90;;;;;;4944208;28;20045;-75
2022/09/04 08:19:07;;;;;;;3.15;2.85;;;19.00;83.00;;;;;;4974863;28;20042;-76
2022/09/04 08:21:38;;;;;;;5.07;3.20;;;19.20;83.00;;;;;;4975310;28;20518;-76
2022/09/04 08:24:16;;;;;;;3.53;3.03;;;19.30;83.10;;;;;;4969521;28;20066;-76
2022/09/04 08:27:08;;;;;;;3.38;2.88;;;19.40;82.80;;;;;;4974925;28;20073;-75
2022/09/04 08:29:53;;;;;;;4.55;3.60;;;19.60;82.70;;;;;;4975887;28;20046;-76
2022/09/04 08:32:48;;;;;;;3.78;3.45;;;19.80;83.20;;;;;;4979009;28;20062;-76
2022/09/04 08:35:31;;;;;;;3.63;3.00;;;20.00;83.30;;;;;;4978976;28;20034;-76
2022/09/04 08:38:32;;;;;;;3.60;2.70;;;20.50;84.50;;;;;;4963650;28;20034;-76
2022/09/04 08:41:36;;;;;;;2.80;2.60;;;21.40;83.40;;;;;;4964074;28;20038;-76
2022/09/04 08:44:17;;;;;;;3.67;2.50;;;22.30;81.60;;;;;;4978715;28;20049;-76
2022/09/04 08:47:10;;;;;;;3.17;2.55;;;23.10;78.90;;;;;;4978756;28;20031;-76
2022/09/04 08:49:54;;;;;;;;;;;23.80;76.40;;;;;;4967400;28;20047;-76
2022/09/04 08:52:44;;;;;;;;;;;24.40;77.40;;;;;;4978893;28;20364;-76
2022/09/04 08:55:21;;;;;;;3.30;2.40;;;24.80;70.00;;;;;;4978536;28;20395;-76
2022/09/04 08:57:51;;;;;;;3.40;2.85;;;25.10;73.10;;;;;;4978167;28;20509;-76
2022/09/04 09:00:19;;;;;;;2.70;2.40;;;25.30;71.10;;;;;;4949721;28;20042;-76
2022/09/04 09:03:07;;;;;;;2.63;2.42;;;25.40;70.80;;;;;;4951511;28;20394;-77
2022/09/04 09:05:45;;;;;;;3.15;2.42;;;25.50;68.30;;;;;;4945979;28;20066;-77
2022/09/04 09:08:38;;;;;;;3.45;2.70;;;25.50;68.50;;;;;;4957837;28;20121;-77
2022/09/04 09:11:24;;;;;;;2.50;2.30;;;25.70;67.20;;;;;;4955898;28;20062;-77
2022/09/04 09:14:11;;;;;;;3.85;2.70;;;26.00;66.90;;;;;;4993873;28;20038;-77
2022/09/04 09:16:53;;;;;;;3.08;2.10;;;26.30;67.50;;;;;;4944400;28;20507;-77
2022/09/04 09:19:39;;;;;;;2.70;2.33;;;26.30;66.40;;;;;;4939736;29;20039;-77
2022/09/04 09:22:48;;;;;;;2.60;2.38;;;26.40;67.20;;;;;;4923916;29;20047;-77
2022/09/04 09:25:20;;;;;;;3.85;2.58;;;26.60;66.60;;;;;;4924606;29;20043;-77
2022/09/04 09:28:25;;;;;;;4.20;2.20;;;26.70;65.80;;;;;;4951020;28;20042;-77
2022/09/04 09:31:37;;;;;;;2.85;2.30;;;26.60;64.40;;;;;;4961081;28;20038;-77
2022/09/04 09:34:30;;;;;;;2.30;2.10;;;26.70;64.40;;;;;;4966903;28;20129;-77
2022/09/04 09:37:23;;;;;;;2.40;2.20;;;27.10;63.80;;;;;;4963920;28;20034;-78
2022/09/04 09:40:07;;;;;;;2.63;2.20;;;27.20;63.20;;;;;;4973886;28;20401;-77
2022/09/04 09:42:55;;;;;;;2.80;2.30;;;27.60;63.40;;;;;;4957252;28;20051;-77
2022/09/04 09:46:14;;;;;;;2.47;2.10;;;28.10;62.20;;;;;;4948552;29;20556;-77
2022/09/04 09:49:12;;;;;;;2.72;2.28;;;28.30;60.90;;;;;;4916700;29;20082;-77
2022/09/04 09:51:58;;;;;;;2.00;1.80;;;28.60;60.30;;;;;;4938792;29;20039;-77
2022/09/04 09:55:15;;;;;;;2.70;2.20;;;28.70;58.90;;;;;;4939875;28;20178;-77
2022/09/04 09:58:02;;;;;;;2.20;1.85;;;28.80;58.50;;;;;;4965859;28;20070;-77
2022/09/04 10:00:35;;;;;;;1.83;1.73;;;28.80;60.20;;;;;;4954155;28;20105;-77
2022/09/04 10:03:01;;;;;;;;;;;28.80;59.30;;;;;;4958331;28;20064;-77
2022/09/04 10:05:56;;;;;;;1.60;1.50;;;28.80;58.80;;;;;;4957789;28;20381;-77
2022/09/04 10:09:00;;;;;;;2.00;1.75;;;28.80;59.60;;;;;;4960022;28;20121;-77
2022/09/04 10:11:47;;;;;;;1.92;1.77;;;28.90;58.70;;;;;;4956423;28;20413;-78
2022/09/04 10:14:34;;;;;;;2.08;1.88;;;28.90;59.90;;;;;;4954005;28;20052;-76
2022/09/04 10:17:27;;;;;;;2.85;1.80;;;29.10;59.80;;;;;;4962345;28;20477;-75
2022/09/04 10:19:53;;;;;;;;;;;29.20;58.40;;;;;;4961554;28;20042;-77
2022/09/04 10:22:50;;;;;;;1.70;1.45;;;29.20;58.00;;;;;;4965538;28;19924;-77
2022/09/04 10:25:37;;;;;;;3.15;1.88;;;29.30;58.30;;;;;;4950588;28;20046;-77
2022/09/04 10:28:44;;;;;;;2.97;2.00;;;29.40;59.40;;;;;;4976755;28;20397;-77
2022/09/04 10:31:33;;;;;;;2.03;1.80;;;29.20;58.10;;;;;;4972899;28;20081;-77
2022/09/04 10:34:37;;;;;;;2.30;1.85;;;29.00;57.30;;;;;;4946665;28;20117;-77
2022/09/04 10:37:13;;;;;;;2.10;1.90;;;29.00;58.10;;;;;;4956389;28;20489;-77
2022/09/04 10:40:42;;;;;;;2.53;1.88;;;29.10;58.00;;;;;;4922445;29;20406;-77
2022/09/04 10:43:34;;;;;;;2.25;1.73;;;29.20;58.50;;;;;;4935470;29;20055;-77
2022/09/04 10:46:09;;;;;;;2.00;1.80;;;29.50;57.40;;;;;;4938191;29;20400;-78
2022/09/04 10:48:35;;;;;;;1.70;1.60;;;29.80;56.20;;;;;;4946120;28;20398;-77
2022/09/04 10:51:26;;;;;;;2.92;2.47;;;29.90;57.80;;;;;;4943889;28;20043;-77
2022/09/04 10:54:20;;;;;;;1.98;1.77;;;30.10;55.80;;;;;;4957077;28;20106;-77
2022/09/04 10:57:03;;;;;;;1.75;1.65;;;30.00;56.00;;;;;;4943363;28;20077;-78
2022/09/04 10:59:47;;;;;;;;;;;30.20;56.00;;;;;;4976821;28;20038;-78
2022/09/04 11:02:37;;;;;;;2.70;1.70;;;30.30;56.10;;;;;;4976205;28;19921;-77
2022/09/04 11:05:39;;;;;;;2.33;1.70;;;30.30;56.50;;;;;;4956146;28;20047;-77
2022/09/04 11:08:34;;;;;;;1.70;1.58;;;30.40;55.70;;;;;;4895863;28;20485;-77
2022/09/04 11:11:12;;;;;;;1.92;1.80;;;30.20;55.20;;;;;;4959178;28;20108;-77
2022/09/04 11:13:55;;;;;;;2.20;1.70;;;30.00;55.90;;;;;;4957703;28;20456;-77
2022/09/04 11:17:11;;;;;;;1.65;1.55;;;29.90;56.30;;;;;;4960830;28;20445;-77
2022/09/04 11:20:11;;;;;;;1.63;1.52;;;30.00;55.20;;;;;;4920940;28;20035;-76
2022/09/04 11:22:57;;;;;;;1.45;1.35;;;29.90;56.40;;;;;;4947873;28;20113;-75
2022/09/04 11:25:37;;;;;;;1.58;1.48;;;30.10;56.30;;;;;;4956068;28;20754;-75
2022/09/04 11:28:31;;;;;;;2.08;1.60;;;30.20;55.80;;;;;;4962067;28;20042;-76
2022/09/04 11:31:34;;;;;;;2.25;1.40;;;30.30;55.40;;;;;;4964515;28;20224;-75
2022/09/04 11:34:15;;;;;;;;;;;30.50;54.70;;;;;;4940896;28;20122;-75
2022/09/04 11:37:32;;;;;;;1.77;1.30;;;30.50;55.00;;;;;;4941841;28;19925;-75
2022/09/04 11:40:31;;;;;;;1.27;1.10;;;30.50;55.80;;;;;;4863641;29;20127;-75
2022/09/04 11:43:17;;;;;;;1.77;1.40;;;30.60;55.80;;;;;;4956314;28;20042;-75
2022/09/04 11:45:53;;;;;;;2.15;1.00;;;30.80;54.70;;;;;;4934368;28;20125;-76
2022/09/04 11:48:44;;;;;;;1.38;1.23;;;30.90;53.60;;;;;;4973427;28;20039;-76
2022/09/04 11:51:47;;;;;;;1.40;1.10;;;30.90;53.80;;;;;;4965734;28;20504;-76
2022/09/04 11:54:31;;;;;;;1.52;1.38;;;30.70;53.30;;;;;;4948508;28;20038;-76
2022/09/04 11:57:31;;;;;;;1.30;1.20;;;30.70;54.80;;;;;;4920637;29;20179;-76
2022/09/04 12:00:06;;;;;;;0.98;0.98;;;30.60;55.20;;;;;;4959821;28;20492;-76
2022/09/04 12:03:25;;;;;;;1.65;1.10;;;30.60;54.90;;;;;;4975186;28;20053;-76
2022/09/04 12:06:33;;;;;;;1.23;1.13;;;30.80;52.90;;;;;;4933350;28;20295;-76
2022/09/04 12:09:17;;;;;;;2.05;1.15;;;31.00;53.60;;;;;;4975106;28;20046;-76
2022/09/04 12:11:59;;;;;;;0.85;0.85;;;31.20;53.80;;;;;;4960590;28;20193;-76
2022/09/04 12:14:52;;;;;;;2.80;1.60;;;31.50;53.90;;;;;;4951293;28;20043;-76
2022/09/04 12:17:32;;;;;;;1.60;1.17;;;31.70;53.00;;;;;;4920879;29;20039;-76
2022/09/04 12:20:23;;;;;;;1.50;1.40;;;31.70;52.50;;;;;;4936463;29;20086;-76
2022/09/04 12:23:07;;;;;;;1.85;1.50;;;31.70;52.30;;;;;;4920978;29;20067;-76
2022/09/04 12:26:21;;;;;;;1.60;1.33;;;31.70;51.30;;;;;;4937523;28;20389;-76
2022/09/04 12:28:46;;;;;;;;;;;31.90;51.40;;;;;;4958690;28;20050;-76
2022/09/04 12:31:38;;;;;;;1.40;1.30;;;31.90;50.20;;;;;;4974940;28;19972;-76
2022/09/04 12:34:34;;;;;;;3.92;1.60;;;31.90;51.40;;;;;;4975092;28;20412;-76
2022/09/04 12:37:18;;;;;;;1.65;1.55;;;31.90;52.00;;;;;;4974965;28;20043;-76
2022/09/04 12:40:07;;;;;;;1.50;1.40;;;32.00;51.30;;;;;;4969476;28;20046;-76
2022/09/04 12:43:04;;;;;;;1.70;1.40;;;32.10;50.90;;;;;;4958871;28;20101;-76
2022/09/04 12:45:56;;;;;;;1.83;1.70;;;32.40;51.60;;;;;;4974679;28;20497;-76
2022/09/04 12:48:28;;;;;;;1.70;1.60;;;32.60;50.50;;;;;;4969242;28;20048;-77
2022/09/04 12:50:59;;;;;;;;;;;32.20;50.90;;;;;;4975373;28;20096;-76
2022/09/04 12:53:55;;;;;;;1.67;1.58;;;31.50;50.10;;;;;;4974669;28;20440;-76
2022/09/04 12:56:59;;;;;;;1.70;1.30;;;30.80;52.90;;;;;;4974255;28;20034;-76
2022/09/04 12:59:51;;;;;;;1.80;1.50;;;30.30;53.20;;;;;;4957947;28;20053;-76
2022/09/04 13:02:45;;;;;;;2.70;1.88;;;30.30;53.30;;;;;;4964714;28;20043;-76
2022/09/04 13:05:30;;;;;;;2.08;1.88;;;30.30;53.50;;;;;;4967475;28;20425;-76
2022/09/04 13:07:59;;;;;;;1.80;1.70;;;30.30;53.40;;;;;;4974481;28;20050;-76
2022/09/04 13:10:34;;;;;;;1.52;1.40;;;30.20;53.50;;;;;;4974738;28;20112;-76
2022/09/04 13:13:21;;;;;;;1.98;1.75;;;29.90;53.40;;;;;;4961086;28;20085;-76
2022/09/04 13:16:00;;;;;;;1.80;1.70;;;29.60;54.70;;;;;;4972383;28;20077;-76
2022/09/04 13:18:43;;;;;;;2.13;1.50;;;29.30;55.60;;;;;;4962212;28;20393;-76
2022/09/04 13:21:09;;;;;;;2.30;1.70;;;29.50;56.40;;;;;;4961975;28;20157;-76
2022/09/04 13:23:59;;;;;;;2.47;1.95;;;29.90;55.10;;;;;;4978038;28;20143;-76
2022/09/04 13:26:47;;;;;;;2.15;1.80;;;30.10;54.10;;;;;;4970657;28;20049;-76
2022/09/04 13:29:24;;;;;;;1.77;1.63;;;30.20;54.20;;;;;;4966881;28;20042;-76
2022/09/04 13:32:25;;;;;;;1.80;1.60;;;30.30;53.70;;;;;;4977827;28;20125;-76
2022/09/04 13:35:23;;;;;;;1.85;1.70;;;30.30;53.20;;;;;;4978181;28;20504;-76
2022/09/04 13:38:20;;;;;;;2.83;1.73;;;30.20;53.80;;;;;;4977528;28;20501;-76
2022/09/04 13:41:16;;;;;;;2.08;1.88;;;30.20;53.00;;;;;;4966577;28;20079;-76
2022/09/04 13:44:17;;;;;;;1.65;1.55;;;30.10;53.60;;;;;;4961315;28;20509;-76
2022/09/04 13:46:46;;;;;;;1.42;1.33;;;30.00;52.60;;;;;;4977619;28;20054;-76
2022/09/04 13:49:20;;;;;;;1.70;1.60;;;29.80;53.00;;;;;;4977450;28;20089;-76
2022/09/04 13:51:52;;;;;;;1.70;1.52;;;29.50;52.90;;;;;;4966361;28;20052;-76
2022/09/04 13:54:38;;;;;;;1.70;1.60;;;29.20;54.40;;;;;;4977693;28;20081;-76
2022/09/04 13:57:20;;;;;;;2.35;1.70;;;29.10;55.10;;;;;;4977505;28;20050;-76
2022/09/04 13:59:49;;;;;;;1.80;1.70;;;29.20;55.60;;;;;;4977253;28;20034;-76
2022/09/04 14:02:23;;;;;;;2.03;1.65;;;29.20;54.90;;;;;;4977321;28;20093;-76
2022/09/04 14:04:51;;;;;;;1.73;1.50;;;29.30;55.00;;;;;;4966019;28;20118;-76
2022/09/04 14:07:25;;;;;;;2.35;1.77;;;29.30;54.40;;;;;;4976791;28;20050;-76
2022/09/04 14:09:55;;;;;;;1.80;1.50;;;29.30;53.90;;;;;;4977095;28;20050;-76
2022/09/04 14:12:48;;;;;;;2.30;2.10;;;29.10;54.40;;;;;;4977113;28;20038;-76
2022/09/04 14:15:31;;;;;;;2.13;1.77;;;29.10;54.00;;;;;;4961004;28;20045;-76
2022/09/04 14:18:12;;;;;;;;;;;29.00;53.70;;;;;;4930193;28;20527;-76
2022/09/04 14:20:46;;;;;;;2.13;1.92;;;29.00;53.70;;;;;;4946536;28;19965;-76
2022/09/04 14:23:28;;;;;;;2.60;2.05;;;29.00;54.40;;;;;;4966975;28;20374;-76
2022/09/04 14:25:57;;;;;;;2.28;2.08;;;29.00;55.50;;;;;;4964499;28;20074;-76
2022/09/04 14:28:34;;;;;;;2.38;2.17;;;28.90;55.20;;;;;;4957291;28;20039;-76
2022/09/04 14:31:15;;;;;;;2.10;1.90;;;28.90;55.20;;;;;;4962317;28;20529;-76
2022/09/04 14:34:00;;;;;;;2.00;1.83;;;28.90;55.30;;;;;;4972990;28;20038;-79